sensor_id;sensor_type;location;lat;lon;timestamp;P1;durP1;ratioP1;P2;durP2;ratioP2
40154;SDS011;25875;48.202;16.334;2023-03-14T00:02:30;4.93;;;4.30;;
40154;SDS011;25875;48.202;16.334;2023-03-14T00:04:57;6.20;;;4.68;;
40154;SDS011;25875;48.202;16.334;2023-03-14T00:07:24;6.28;;;4.80;;
40154;SDS011;25875;48.202;16.334;2023-03-14T00:09:51;6.00;;;4.35;;
40154;SDS011;25875;48.202;16.334;2023-03-14T00:12:18;9.18;;;4.95;;
40154;SDS011;25875;48.202;16.334;2023-03-14T00:14:45;7.40;;;4.15;;
40154;SDS011;25875;48.202;16.334;2023-03-14T00:17:13;7.25;;;4.78;;
40154;SDS011;25875;48.202;16.334;2023-03-14T00:19:39;5.90;;;4.00;;
40154;SDS011;25875;48.202;16.334;2023-03-14T00:22:06;6.70;;;4.65;;
40154;SDS011;25875;48.202;16.334;2023-03-14T00:24:33;11.27;;;4.88;;
40154;SDS011;25875;48.202;16.334;2023-03-14T00:27:00;5.40;;;4.35;;
40154;SDS011;25875;48.202;16.334;2023-03-14T00:29:27;5.60;;;4.20;;
40154;SDS011;25875;48.202;16.334;2023-03-14T00:31:54;7.78;;;4.60;;
40154;SDS011;25875;48.202;16.334;2023-03-14T00:34:22;9.40;;;5.53;;
40154;SDS011;25875;48.202;16.334;2023-03-14T00:36:49;7.57;;;4.85;;
40154;SDS011;25875;48.202;16.334;2023-03-14T00:39:15;7.22;;;4.60;;
40154;SDS011;25875;48.202;16.334;2023-03-14T00:41:42;5.85;;;4.28;;
40154;SDS011;25875;48.202;16.334;2023-03-14T00:44:09;5.82;;;3.95;;
40154;SDS011;25875;48.202;16.334;2023-03-14T00:46:36;6.45;;;4.35;;
40154;SDS011;25875;48.202;16.334;2023-03-14T00:49:02;7.85;;;3.75;;
40154;SDS011;25875;48.202;16.334;2023-03-14T00:51:31;6.75;;;4.28;;
40154;SDS011;25875;48.202;16.334;2023-03-14T00:53:58;5.95;;;4.10;;
40154;SDS011;25875;48.202;16.334;2023-03-14T00:56:25;8.50;;;4.13;;
40154;SDS011;25875;48.202;16.334;2023-03-14T00:58:53;6.75;;;4.95;;
40154;SDS011;25875;48.202;16.334;2023-03-14T01:01:20;6.00;;;4.45;;
40154;SDS011;25875;48.202;16.334;2023-03-14T01:03:50;7.35;;;4.70;;
40154;SDS011;25875;48.202;16.334;2023-03-14T01:06:18;5.63;;;4.50;;
40154;SDS011;25875;48.202;16.334;2023-03-14T01:08:48;6.47;;;4.07;;
40154;SDS011;25875;48.202;16.334;2023-03-14T01:11:16;7.00;;;4.20;;
40154;SDS011;25875;48.202;16.334;2023-03-14T01:13:45;6.30;;;4.70;;
40154;SDS011;25875;48.202;16.334;2023-03-14T01:16:12;5.88;;;4.25;;
40154;SDS011;25875;48.202;16.334;2023-03-14T01:18:41;6.85;;;4.10;;
40154;SDS011;25875;48.202;16.334;2023-03-14T01:21:10;6.30;;;4.75;;
40154;SDS011;25875;48.202;16.334;2023-03-14T01:23:38;9.10;;;7.07;;
40154;SDS011;25875;48.202;16.334;2023-03-14T01:26:09;11.05;;;7.95;;
40154;SDS011;25875;48.202;16.334;2023-03-14T01:28:36;9.13;;;5.88;;
40154;SDS011;25875;48.202;16.334;2023-03-14T01:31:03;8.60;;;6.20;;
40154;SDS011;25875;48.202;16.334;2023-03-14T01:33:30;6.72;;;5.75;;
40154;SDS011;25875;48.202;16.334;2023-03-14T01:35:57;6.80;;;4.55;;
40154;SDS011;25875;48.202;16.334;2023-03-14T01:38:24;7.13;;;3.92;;
40154;SDS011;25875;48.202;16.334;2023-03-14T01:40:50;6.03;;;4.20;;
40154;SDS011;25875;48.202;16.334;2023-03-14T01:43:19;6.15;;;4.28;;
40154;SDS011;25875;48.202;16.334;2023-03-14T01:46:06;5.55;;;4.22;;
40154;SDS011;25875;48.202;16.334;2023-03-14T01:51:14;6.88;;;3.90;;
40154;SDS011;25875;48.202;16.334;2023-03-14T01:53:43;6.50;;;4.20;;
40154;SDS011;25875;48.202;16.334;2023-03-14T01:56:11;6.10;;;4.25;;
40154;SDS011;25875;48.202;16.334;2023-03-14T01:58:42;7.22;;;4.35;;
40154;SDS011;25875;48.202;16.334;2023-03-14T02:01:11;8.23;;;4.53;;
40154;SDS011;25875;48.202;16.334;2023-03-14T02:03:39;6.47;;;4.50;;
40154;SDS011;25875;48.202;16.334;2023-03-14T02:06:13;6.07;;;4.50;;
40154;SDS011;25875;48.202;16.334;2023-03-14T02:08:44;7.22;;;4.38;;
40154;SDS011;25875;48.202;16.334;2023-03-14T02:11:13;7.15;;;4.63;;
40154;SDS011;25875;48.202;16.334;2023-03-14T02:13:42;7.60;;;4.68;;
40154;SDS011;25875;48.202;16.334;2023-03-14T02:16:09;8.85;;;4.50;;
40154;SDS011;25875;48.202;16.334;2023-03-14T02:18:36;6.03;;;4.47;;
40154;SDS011;25875;48.202;16.334;2023-03-14T02:21:07;10.18;;;5.03;;
40154;SDS011;25875;48.202;16.334;2023-03-14T02:23:41;6.40;;;4.80;;
40154;SDS011;25875;48.202;16.334;2023-03-14T02:26:15;6.47;;;4.63;;
40154;SDS011;25875;48.202;16.334;2023-03-14T02:28:49;6.80;;;4.53;;
40154;SDS011;25875;48.202;16.334;2023-03-14T02:31:18;8.95;;;5.28;;
40154;SDS011;25875;48.202;16.334;2023-03-14T02:33:46;7.22;;;5.30;;
40154;SDS011;25875;48.202;16.334;2023-03-14T02:36:13;7.75;;;4.80;;
40154;SDS011;25875;48.202;16.334;2023-03-14T02:38:43;7.05;;;5.30;;
40154;SDS011;25875;48.202;16.334;2023-03-14T02:41:13;6.43;;;4.38;;
40154;SDS011;25875;48.202;16.334;2023-03-14T02:43:41;8.13;;;5.93;;
40154;SDS011;25875;48.202;16.334;2023-03-14T02:46:09;7.60;;;4.55;;
40154;SDS011;25875;48.202;16.334;2023-03-14T02:48:38;7.25;;;4.90;;
40154;SDS011;25875;48.202;16.334;2023-03-14T02:51:07;7.22;;;4.65;;
40154;SDS011;25875;48.202;16.334;2023-03-14T02:53:35;7.07;;;4.75;;
40154;SDS011;25875;48.202;16.334;2023-03-14T02:56:04;5.15;;;4.00;;
40154;SDS011;25875;48.202;16.334;2023-03-14T02:58:31;8.07;;;4.53;;
40154;SDS011;25875;48.202;16.334;2023-03-14T03:00:58;10.05;;;5.00;;
40154;SDS011;25875;48.202;16.334;2023-03-14T03:03:26;7.47;;;4.65;;
40154;SDS011;25875;48.202;16.334;2023-03-14T03:05:53;7.25;;;4.85;;
40154;SDS011;25875;48.202;16.334;2023-03-14T03:08:22;7.40;;;4.40;;
40154;SDS011;25875;48.202;16.334;2023-03-14T03:10:51;7.13;;;5.07;;
40154;SDS011;25875;48.202;16.334;2023-03-14T03:13:19;6.60;;;4.20;;
40154;SDS011;25875;48.202;16.334;2023-03-14T03:15:45;7.05;;;4.50;;
40154;SDS011;25875;48.202;16.334;2023-03-14T03:18:13;7.75;;;4.15;;
40154;SDS011;25875;48.202;16.334;2023-03-14T03:20:41;7.30;;;4.22;;
40154;SDS011;25875;48.202;16.334;2023-03-14T03:23:07;6.15;;;4.30;;
40154;SDS011;25875;48.202;16.334;2023-03-14T03:25:34;6.82;;;4.30;;
40154;SDS011;25875;48.202;16.334;2023-03-14T03:28:01;8.15;;;4.28;;
40154;SDS011;25875;48.202;16.334;2023-03-14T03:30:32;5.07;;;3.80;;
40154;SDS011;25875;48.202;16.334;2023-03-14T03:33:00;8.93;;;3.70;;
40154;SDS011;25875;48.202;16.334;2023-03-14T03:35:26;5.57;;;4.00;;
40154;SDS011;25875;48.202;16.334;2023-03-14T03:37:55;5.32;;;3.95;;
40154;SDS011;25875;48.202;16.334;2023-03-14T03:40:21;5.20;;;4.45;;
40154;SDS011;25875;48.202;16.334;2023-03-14T03:42:48;7.20;;;4.50;;
40154;SDS011;25875;48.202;16.334;2023-03-14T03:45:15;5.82;;;4.10;;
40154;SDS011;25875;48.202;16.334;2023-03-14T03:47:42;5.80;;;3.83;;
40154;SDS011;25875;48.202;16.334;2023-03-14T03:50:09;6.72;;;4.38;;
40154;SDS011;25875;48.202;16.334;2023-03-14T03:52:36;5.20;;;4.43;;
40154;SDS011;25875;48.202;16.334;2023-03-14T03:55:06;5.63;;;4.68;;
40154;SDS011;25875;48.202;16.334;2023-03-14T03:57:33;8.20;;;5.65;;
40154;SDS011;25875;48.202;16.334;2023-03-14T04:00:01;6.07;;;4.38;;
40154;SDS011;25875;48.202;16.334;2023-03-14T04:02:28;7.63;;;5.18;;
40154;SDS011;25875;48.202;16.334;2023-03-14T04:04:54;8.05;;;5.40;;
40154;SDS011;25875;48.202;16.334;2023-03-14T04:07:21;8.85;;;5.53;;
40154;SDS011;25875;48.202;16.334;2023-03-14T04:09:48;7.95;;;5.28;;
40154;SDS011;25875;48.202;16.334;2023-03-14T04:12:16;10.23;;;5.65;;
40154;SDS011;25875;48.202;16.334;2023-03-14T04:14:43;5.82;;;4.53;;
40154;SDS011;25875;48.202;16.334;2023-03-14T04:17:11;7.07;;;5.70;;
40154;SDS011;25875;48.202;16.334;2023-03-14T04:19:38;8.95;;;6.22;;
40154;SDS011;25875;48.202;16.334;2023-03-14T04:22:05;7.70;;;5.40;;
40154;SDS011;25875;48.202;16.334;2023-03-14T04:24:32;8.07;;;5.38;;
40154;SDS011;25875;48.202;16.334;2023-03-14T04:26:59;7.35;;;5.20;;
40154;SDS011;25875;48.202;16.334;2023-03-14T04:29:27;5.93;;;4.90;;
40154;SDS011;25875;48.202;16.334;2023-03-14T04:31:54;5.65;;;4.72;;
40154;SDS011;25875;48.202;16.334;2023-03-14T04:34:21;8.35;;;5.05;;
40154;SDS011;25875;48.202;16.334;2023-03-14T04:36:48;7.38;;;4.97;;
40154;SDS011;25875;48.202;16.334;2023-03-14T04:39:14;6.07;;;4.78;;
40154;SDS011;25875;48.202;16.334;2023-03-14T04:41:41;6.43;;;4.65;;
40154;SDS011;25875;48.202;16.334;2023-03-14T04:44:08;6.63;;;4.88;;
40154;SDS011;25875;48.202;16.334;2023-03-14T04:46:36;6.75;;;4.47;;
40154;SDS011;25875;48.202;16.334;2023-03-14T04:49:03;7.85;;;4.72;;
40154;SDS011;25875;48.202;16.334;2023-03-14T04:51:29;6.30;;;4.60;;
40154;SDS011;25875;48.202;16.334;2023-03-14T04:53:56;6.43;;;5.28;;
40154;SDS011;25875;48.202;16.334;2023-03-14T04:56:23;9.40;;;4.95;;
40154;SDS011;25875;48.202;16.334;2023-03-14T04:58:50;6.85;;;4.80;;
40154;SDS011;25875;48.202;16.334;2023-03-14T05:01:17;6.05;;;4.85;;
40154;SDS011;25875;48.202;16.334;2023-03-14T05:03:45;7.22;;;4.50;;
40154;SDS011;25875;48.202;16.334;2023-03-14T05:06:12;6.18;;;4.57;;
40154;SDS011;25875;48.202;16.334;2023-03-14T05:08:38;5.70;;;4.60;;
40154;SDS011;25875;48.202;16.334;2023-03-14T05:11:05;6.25;;;4.55;;
40154;SDS011;25875;48.202;16.334;2023-03-14T05:13:32;6.55;;;3.85;;
40154;SDS011;25875;48.202;16.334;2023-03-14T05:16:06;5.93;;;4.30;;
40154;SDS011;25875;48.202;16.334;2023-03-14T05:18:34;7.95;;;5.05;;
40154;SDS011;25875;48.202;16.334;2023-03-14T05:21:03;4.95;;;4.38;;
40154;SDS011;25875;48.202;16.334;2023-03-14T05:23:30;5.20;;;4.07;;
40154;SDS011;25875;48.202;16.334;2023-03-14T05:25:57;5.90;;;4.65;;
40154;SDS011;25875;48.202;16.334;2023-03-14T05:28:24;5.47;;;3.92;;
40154;SDS011;25875;48.202;16.334;2023-03-14T05:30:50;6.07;;;4.00;;
40154;SDS011;25875;48.202;16.334;2023-03-14T05:33:17;6.93;;;4.80;;
40154;SDS011;25875;48.202;16.334;2023-03-14T05:35:44;7.35;;;5.05;;
40154;SDS011;25875;48.202;16.334;2023-03-14T05:38:12;6.78;;;4.70;;
40154;SDS011;25875;48.202;16.334;2023-03-14T05:40:39;4.55;;;4.03;;
40154;SDS011;25875;48.202;16.334;2023-03-14T05:43:06;5.78;;;4.90;;
40154;SDS011;25875;48.202;16.334;2023-03-14T05:45:33;5.63;;;4.65;;
40154;SDS011;25875;48.202;16.334;2023-03-14T05:48:00;5.45;;;4.10;;
40154;SDS011;25875;48.202;16.334;2023-03-14T05:50:27;10.27;;;5.53;;
40154;SDS011;25875;48.202;16.334;2023-03-14T05:52:54;5.88;;;4.25;;
40154;SDS011;25875;48.202;16.334;2023-03-14T05:55:22;6.32;;;5.30;;
40154;SDS011;25875;48.202;16.334;2023-03-14T05:57:49;5.20;;;4.47;;
40154;SDS011;25875;48.202;16.334;2023-03-14T06:00:16;6.13;;;5.07;;
40154;SDS011;25875;48.202;16.334;2023-03-14T06:02:43;5.50;;;4.68;;
40154;SDS011;25875;48.202;16.334;2023-03-14T06:05:10;5.18;;;4.60;;
40154;SDS011;25875;48.202;16.334;2023-03-14T06:07:38;5.68;;;4.80;;
40154;SDS011;25875;48.202;16.334;2023-03-14T06:10:05;6.63;;;4.35;;
40154;SDS011;25875;48.202;16.334;2023-03-14T06:12:34;7.47;;;5.57;;
40154;SDS011;25875;48.202;16.334;2023-03-14T06:15:00;7.32;;;5.20;;
40154;SDS011;25875;48.202;16.334;2023-03-14T06:17:27;6.53;;;5.10;;
40154;SDS011;25875;48.202;16.334;2023-03-14T06:19:54;6.38;;;4.90;;
40154;SDS011;25875;48.202;16.334;2023-03-14T06:22:21;7.22;;;5.10;;
40154;SDS011;25875;48.202;16.334;2023-03-14T06:24:47;8.73;;;5.45;;
40154;SDS011;25875;48.202;16.334;2023-03-14T06:27:14;7.30;;;4.97;;
40154;SDS011;25875;48.202;16.334;2023-03-14T06:29:42;7.85;;;4.95;;
40154;SDS011;25875;48.202;16.334;2023-03-14T06:32:09;8.75;;;5.80;;
40154;SDS011;25875;48.202;16.334;2023-03-14T06:34:36;7.10;;;5.00;;
40154;SDS011;25875;48.202;16.334;2023-03-14T06:37:03;6.45;;;5.20;;
40154;SDS011;25875;48.202;16.334;2023-03-14T06:39:30;6.90;;;5.00;;
40154;SDS011;25875;48.202;16.334;2023-03-14T06:41:57;8.70;;;4.85;;
40154;SDS011;25875;48.202;16.334;2023-03-14T06:44:24;7.85;;;5.72;;
40154;SDS011;25875;48.202;16.334;2023-03-14T06:46:52;7.13;;;5.15;;
40154;SDS011;25875;48.202;16.334;2023-03-14T06:49:19;7.00;;;5.65;;
40154;SDS011;25875;48.202;16.334;2023-03-14T06:51:46;10.63;;;6.32;;
40154;SDS011;25875;48.202;16.334;2023-03-14T06:54:13;10.18;;;6.30;;
40154;SDS011;25875;48.202;16.334;2023-03-14T06:56:39;9.85;;;5.55;;
40154;SDS011;25875;48.202;16.334;2023-03-14T06:59:06;7.07;;;5.75;;
40154;SDS011;25875;48.202;16.334;2023-03-14T07:01:33;10.02;;;6.22;;
40154;SDS011;25875;48.202;16.334;2023-03-14T07:04:02;7.72;;;5.10;;
40154;SDS011;25875;48.202;16.334;2023-03-14T07:06:29;10.15;;;7.20;;
40154;SDS011;25875;48.202;16.334;2023-03-14T07:08:56;9.38;;;5.65;;
40154;SDS011;25875;48.202;16.334;2023-03-14T07:11:23;8.52;;;5.80;;
40154;SDS011;25875;48.202;16.334;2023-03-14T07:13:50;8.60;;;5.97;;
40154;SDS011;25875;48.202;16.334;2023-03-14T07:16:17;7.97;;;5.30;;
40154;SDS011;25875;48.202;16.334;2023-03-14T07:18:44;8.30;;;5.18;;
40154;SDS011;25875;48.202;16.334;2023-03-14T07:21:13;8.13;;;5.57;;
40154;SDS011;25875;48.202;16.334;2023-03-14T07:23:39;8.05;;;6.00;;
40154;SDS011;25875;48.202;16.334;2023-03-14T07:26:07;10.50;;;6.97;;
40154;SDS011;25875;48.202;16.334;2023-03-14T07:28:33;9.02;;;7.85;;
40154;SDS011;25875;48.202;16.334;2023-03-14T07:31:00;8.88;;;6.47;;
40154;SDS011;25875;48.202;16.334;2023-03-14T07:33:27;10.48;;;6.10;;
40154;SDS011;25875;48.202;16.334;2023-03-14T07:35:54;8.65;;;5.85;;
40154;SDS011;25875;48.202;16.334;2023-03-14T07:38:22;8.30;;;6.45;;
40154;SDS011;25875;48.202;16.334;2023-03-14T07:40:49;9.15;;;5.72;;
40154;SDS011;25875;48.202;16.334;2023-03-14T07:43:16;9.93;;;5.93;;
40154;SDS011;25875;48.202;16.334;2023-03-14T07:45:45;8.43;;;5.50;;
40154;SDS011;25875;48.202;16.334;2023-03-14T07:48:12;8.05;;;5.13;;
40154;SDS011;25875;48.202;16.334;2023-03-14T07:50:39;8.77;;;5.57;;
40154;SDS011;25875;48.202;16.334;2023-03-14T07:53:05;6.00;;;4.68;;
40154;SDS011;25875;48.202;16.334;2023-03-14T07:55:34;6.53;;;3.35;;
40154;SDS011;25875;48.202;16.334;2023-03-14T07:58:01;5.53;;;2.90;;
40154;SDS011;25875;48.202;16.334;2023-03-14T08:00:27;5.07;;;2.65;;
40154;SDS011;25875;48.202;16.334;2023-03-14T08:02:54;3.33;;;2.55;;
40154;SDS011;25875;48.202;16.334;2023-03-14T08:05:21;3.85;;;2.20;;
40154;SDS011;25875;48.202;16.334;2023-03-14T08:07:48;3.50;;;2.28;;
40154;SDS011;25875;48.202;16.334;2023-03-14T08:10:15;3.53;;;2.10;;
40154;SDS011;25875;48.202;16.334;2023-03-14T08:12:48;2.50;;;1.90;;
40154;SDS011;25875;48.202;16.334;2023-03-14T08:15:15;2.90;;;2.00;;
40154;SDS011;25875;48.202;16.334;2023-03-14T08:17:42;6.47;;;2.75;;
40154;SDS011;25875;48.202;16.334;2023-03-14T08:20:09;7.18;;;2.10;;
40154;SDS011;25875;48.202;16.334;2023-03-14T08:22:38;2.47;;;1.50;;
40154;SDS011;25875;48.202;16.334;2023-03-14T08:25:05;2.33;;;1.40;;
40154;SDS011;25875;48.202;16.334;2023-03-14T08:27:32;3.25;;;1.60;;
40154;SDS011;25875;48.202;16.334;2023-03-14T08:30:00;5.07;;;1.60;;
40154;SDS011;25875;48.202;16.334;2023-03-14T08:32:27;2.65;;;1.83;;
40154;SDS011;25875;48.202;16.334;2023-03-14T08:34:55;2.40;;;1.55;;
40154;SDS011;25875;48.202;16.334;2023-03-14T08:37:22;2.15;;;1.40;;
40154;SDS011;25875;48.202;16.334;2023-03-14T08:39:50;2.30;;;1.50;;
40154;SDS011;25875;48.202;16.334;2023-03-14T08:42:17;2.28;;;1.40;;
40154;SDS011;25875;48.202;16.334;2023-03-14T08:44:44;1.90;;;1.30;;
40154;SDS011;25875;48.202;16.334;2023-03-14T08:47:12;2.30;;;1.40;;
40154;SDS011;25875;48.202;16.334;2023-03-14T08:49:39;2.60;;;1.50;;
40154;SDS011;25875;48.202;16.334;2023-03-14T08:52:06;2.35;;;1.45;;
40154;SDS011;25875;48.202;16.334;2023-03-14T08:54:33;3.40;;;1.50;;
40154;SDS011;25875;48.202;16.334;2023-03-14T08:57:00;2.20;;;1.50;;
40154;SDS011;25875;48.202;16.334;2023-03-14T08:59:26;2.75;;;1.75;;
40154;SDS011;25875;48.202;16.334;2023-03-14T09:01:53;2.42;;;1.70;;
40154;SDS011;25875;48.202;16.334;2023-03-14T09:04:22;3.25;;;1.80;;
40154;SDS011;25875;48.202;16.334;2023-03-14T09:06:49;3.13;;;1.63;;
40154;SDS011;25875;48.202;16.334;2023-03-14T09:09:16;2.40;;;1.40;;
40154;SDS011;25875;48.202;16.334;2023-03-14T09:11:43;3.13;;;1.85;;
40154;SDS011;25875;48.202;16.334;2023-03-14T09:14:09;3.30;;;1.50;;
40154;SDS011;25875;48.202;16.334;2023-03-14T09:16:36;2.55;;;1.63;;
40154;SDS011;25875;48.202;16.334;2023-03-14T09:19:03;2.40;;;1.60;;
40154;SDS011;25875;48.202;16.334;2023-03-14T09:21:32;2.08;;;1.45;;
40154;SDS011;25875;48.202;16.334;2023-03-14T09:23:59;4.55;;;1.90;;
40154;SDS011;25875;48.202;16.334;2023-03-14T09:26:25;3.15;;;1.83;;
40154;SDS011;25875;48.202;16.334;2023-03-14T09:28:52;5.18;;;1.70;;
40154;SDS011;25875;48.202;16.334;2023-03-14T09:31:19;3.17;;;1.80;;
40154;SDS011;25875;48.202;16.334;2023-03-14T09:33:45;3.95;;;1.90;;
40154;SDS011;25875;48.202;16.334;2023-03-14T09:36:13;3.15;;;2.08;;
40154;SDS011;25875;48.202;16.334;2023-03-14T09:38:41;3.70;;;2.10;;
40154;SDS011;25875;48.202;16.334;2023-03-14T09:41:12;4.72;;;2.78;;
40154;SDS011;25875;48.202;16.334;2023-03-14T09:43:42;4.20;;;2.55;;
40154;SDS011;25875;48.202;16.334;2023-03-14T09:46:12;7.13;;;2.50;;
40154;SDS011;25875;48.202;16.334;2023-03-14T09:48:40;4.43;;;2.78;;
40154;SDS011;25875;48.202;16.334;2023-03-14T09:51:11;3.65;;;2.45;;
40154;SDS011;25875;48.202;16.334;2023-03-14T09:53:42;6.88;;;3.80;;
40154;SDS011;25875;48.202;16.334;2023-03-14T09:56:11;6.43;;;3.72;;
40154;SDS011;25875;48.202;16.334;2023-03-14T09:58:43;5.45;;;3.45;;
40154;SDS011;25875;48.202;16.334;2023-03-14T10:01:15;4.05;;;3.10;;
40154;SDS011;25875;48.202;16.334;2023-03-14T10:03:46;4.95;;;3.30;;
40154;SDS011;25875;48.202;16.334;2023-03-14T10:06:14;6.57;;;3.55;;
40154;SDS011;25875;48.202;16.334;2023-03-14T10:08:43;3.67;;;2.60;;
40154;SDS011;25875;48.202;16.334;2023-03-14T10:11:13;4.32;;;3.10;;
40154;SDS011;25875;48.202;16.334;2023-03-14T10:13:49;4.57;;;2.78;;
40154;SDS011;25875;48.202;16.334;2023-03-14T10:16:17;4.50;;;2.28;;
40154;SDS011;25875;48.202;16.334;2023-03-14T10:18:59;3.20;;;2.15;;
40154;SDS011;25875;48.202;16.334;2023-03-14T10:21:28;3.20;;;2.30;;
40154;SDS011;25875;48.202;16.334;2023-03-14T10:24:08;4.20;;;1.75;;
40154;SDS011;25875;48.202;16.334;2023-03-14T10:26:51;3.45;;;1.70;;
40154;SDS011;25875;48.202;16.334;2023-03-14T10:29:21;3.55;;;1.95;;
40154;SDS011;25875;48.202;16.334;2023-03-14T10:31:50;4.38;;;2.03;;
40154;SDS011;25875;48.202;16.334;2023-03-14T10:34:21;2.70;;;1.73;;
40154;SDS011;25875;48.202;16.334;2023-03-14T10:36:52;2.55;;;1.83;;
40154;SDS011;25875;48.202;16.334;2023-03-14T10:39:32;2.42;;;1.55;;
40154;SDS011;25875;48.202;16.334;2023-03-14T10:42:12;3.83;;;2.10;;
40154;SDS011;25875;48.202;16.334;2023-03-14T10:44:43;3.05;;;1.67;;
40154;SDS011;25875;48.202;16.334;2023-03-14T10:47:15;3.53;;;1.63;;
40154;SDS011;25875;48.202;16.334;2023-03-14T10:49:45;2.47;;;1.80;;
40154;SDS011;25875;48.202;16.334;2023-03-14T10:52:13;2.63;;;1.50;;
40154;SDS011;25875;48.202;16.334;2023-03-14T10:54:45;1.95;;;1.30;;
40154;SDS011;25875;48.202;16.334;2023-03-14T10:57:13;2.15;;;1.30;;
40154;SDS011;25875;48.202;16.334;2023-03-14T10:59:41;2.13;;;1.35;;
40154;SDS011;25875;48.202;16.334;2023-03-14T11:02:14;2.00;;;1.33;;
40154;SDS011;25875;48.202;16.334;2023-03-14T11:04:55;2.08;;;1.30;;
40154;SDS011;25875;48.202;16.334;2023-03-14T11:07:30;2.38;;;1.50;;
40154;SDS011;25875;48.202;16.334;2023-03-14T11:10:07;2.47;;;1.23;;
40154;SDS011;25875;48.202;16.334;2023-03-14T11:12:41;2.83;;;1.27;;
40154;SDS011;25875;48.202;16.334;2023-03-14T11:15:19;1.73;;;1.20;;
40154;SDS011;25875;48.202;16.334;2023-03-14T11:17:54;1.90;;;1.40;;
40154;SDS011;25875;48.202;16.334;2023-03-14T11:20:35;1.90;;;1.30;;
40154;SDS011;25875;48.202;16.334;2023-03-14T11:23:11;2.78;;;1.30;;
40154;SDS011;25875;48.202;16.334;2023-03-14T11:25:44;5.35;;;1.60;;
40154;SDS011;25875;48.202;16.334;2023-03-14T11:28:17;1.70;;;1.25;;
40154;SDS011;25875;48.202;16.334;2023-03-14T11:30:50;2.05;;;1.30;;
40154;SDS011;25875;48.202;16.334;2023-03-14T11:33:20;2.08;;;1.20;;
40154;SDS011;25875;48.202;16.334;2023-03-14T11:35:53;1.95;;;1.27;;
40154;SDS011;25875;48.202;16.334;2023-03-14T11:38:29;2.13;;;1.40;;
40154;SDS011;25875;48.202;16.334;2023-03-14T11:41:01;1.77;;;1.23;;
40154;SDS011;25875;48.202;16.334;2023-03-14T11:43:30;2.78;;;1.40;;
40154;SDS011;25875;48.202;16.334;2023-03-14T11:48:35;2.03;;;1.20;;
40154;SDS011;25875;48.202;16.334;2023-03-14T11:51:08;2.73;;;1.57;;
40154;SDS011;25875;48.202;16.334;2023-03-14T11:56:27;2.35;;;1.48;;
40154;SDS011;25875;48.202;16.334;2023-03-14T11:58:59;2.40;;;1.30;;
40154;SDS011;25875;48.202;16.334;2023-03-14T12:01:33;2.42;;;1.50;;
40154;SDS011;25875;48.202;16.334;2023-03-14T12:04:09;2.15;;;1.20;;
40154;SDS011;25875;48.202;16.334;2023-03-14T12:06:41;2.15;;;1.30;;
40154;SDS011;25875;48.202;16.334;2023-03-14T12:09:13;2.92;;;1.27;;
40154;SDS011;25875;48.202;16.334;2023-03-14T12:11:44;1.90;;;1.23;;
40154;SDS011;25875;48.202;16.334;2023-03-14T12:14:19;2.45;;;1.27;;
40154;SDS011;25875;48.202;16.334;2023-03-14T12:16:49;1.92;;;1.35;;
40154;SDS011;25875;48.202;16.334;2023-03-14T12:19:26;2.03;;;1.30;;
40154;SDS011;25875;48.202;16.334;2023-03-14T12:21:56;2.00;;;1.30;;
40154;SDS011;25875;48.202;16.334;2023-03-14T12:24:27;2.03;;;1.25;;
40154;SDS011;25875;48.202;16.334;2023-03-14T12:26:58;1.70;;;1.10;;
40154;SDS011;25875;48.202;16.334;2023-03-14T12:29:27;2.80;;;1.48;;
40154;SDS011;25875;48.202;16.334;2023-03-14T12:32:21;2.28;;;1.30;;
40154;SDS011;25875;48.202;16.334;2023-03-14T12:34:49;2.20;;;1.30;;
40154;SDS011;25875;48.202;16.334;2023-03-14T12:37:17;1.95;;;1.30;;
40154;SDS011;25875;48.202;16.334;2023-03-14T12:39:58;2.10;;;1.30;;
40154;SDS011;25875;48.202;16.334;2023-03-14T12:42:40;2.22;;;1.40;;
40154;SDS011;25875;48.202;16.334;2023-03-14T12:45:24;2.42;;;1.30;;
40154;SDS011;25875;48.202;16.334;2023-03-14T12:47:54;2.67;;;1.30;;
40154;SDS011;25875;48.202;16.334;2023-03-14T12:50:31;2.85;;;1.50;;
40154;SDS011;25875;48.202;16.334;2023-03-14T12:53:08;1.75;;;1.33;;
40154;SDS011;25875;48.202;16.334;2023-03-14T12:56:00;2.38;;;1.40;;
40154;SDS011;25875;48.202;16.334;2023-03-14T12:58:34;2.78;;;1.25;;
40154;SDS011;25875;48.202;16.334;2023-03-14T13:01:05;1.85;;;1.27;;
40154;SDS011;25875;48.202;16.334;2023-03-14T13:03:43;2.80;;;1.70;;
40154;SDS011;25875;48.202;16.334;2023-03-14T13:06:12;3.80;;;2.50;;
40154;SDS011;25875;48.202;16.334;2023-03-14T13:08:40;4.40;;;2.92;;
40154;SDS011;25875;48.202;16.334;2023-03-14T13:11:10;4.95;;;2.92;;
40154;SDS011;25875;48.202;16.334;2023-03-14T13:13:44;3.53;;;2.42;;
40154;SDS011;25875;48.202;16.334;2023-03-14T13:16:16;3.38;;;2.22;;
40154;SDS011;25875;48.202;16.334;2023-03-14T13:18:45;2.80;;;1.70;;
40154;SDS011;25875;48.202;16.334;2023-03-14T13:21:14;3.13;;;2.22;;
40154;SDS011;25875;48.202;16.334;2023-03-14T13:23:55;2.53;;;1.45;;
40154;SDS011;25875;48.202;16.334;2023-03-14T13:26:24;2.15;;;1.40;;
40154;SDS011;25875;48.202;16.334;2023-03-14T13:29:00;1.80;;;1.25;;
40154;SDS011;25875;48.202;16.334;2023-03-14T13:31:35;3.88;;;1.67;;
40154;SDS011;25875;48.202;16.334;2023-03-14T13:34:04;1.80;;;1.30;;
40154;SDS011;25875;48.202;16.334;2023-03-14T13:36:37;1.77;;;1.20;;
40154;SDS011;25875;48.202;16.334;2023-03-14T13:39:06;2.13;;;1.42;;
40154;SDS011;25875;48.202;16.334;2023-03-14T13:41:39;6.20;;;2.10;;
40154;SDS011;25875;48.202;16.334;2023-03-14T13:44:08;1.55;;;1.20;;
40154;SDS011;25875;48.202;16.334;2023-03-14T13:46:40;1.95;;;1.23;;
40154;SDS011;25875;48.202;16.334;2023-03-14T13:49:09;2.30;;;1.30;;
40154;SDS011;25875;48.202;16.334;2023-03-14T13:51:39;2.00;;;1.38;;
40154;SDS011;25875;48.202;16.334;2023-03-14T13:54:13;1.83;;;1.20;;
40154;SDS011;25875;48.202;16.334;2023-03-14T13:56:42;2.63;;;1.55;;
40154;SDS011;25875;48.202;16.334;2023-03-14T13:59:22;3.83;;;1.60;;
40154;SDS011;25875;48.202;16.334;2023-03-14T14:01:49;2.95;;;1.60;;
40154;SDS011;25875;48.202;16.334;2023-03-14T14:04:18;2.05;;;1.20;;
40154;SDS011;25875;48.202;16.334;2023-03-14T14:06:49;2.10;;;1.35;;
40154;SDS011;25875;48.202;16.334;2023-03-14T14:09:19;2.30;;;1.40;;
40154;SDS011;25875;48.202;16.334;2023-03-14T14:11:50;1.95;;;1.30;;
40154;SDS011;25875;48.202;16.334;2023-03-14T14:14:23;3.40;;;1.38;;
40154;SDS011;25875;48.202;16.334;2023-03-14T14:16:55;1.97;;;1.30;;
40154;SDS011;25875;48.202;16.334;2023-03-14T14:19:24;2.10;;;1.40;;
40154;SDS011;25875;48.202;16.334;2023-03-14T14:21:53;2.47;;;1.40;;
40154;SDS011;25875;48.202;16.334;2023-03-14T14:24:21;1.80;;;1.33;;
40154;SDS011;25875;48.202;16.334;2023-03-14T14:26:51;2.38;;;1.55;;
40154;SDS011;25875;48.202;16.334;2023-03-14T14:29:25;2.60;;;1.70;;
40154;SDS011;25875;48.202;16.334;2023-03-14T14:32:03;3.65;;;1.83;;
40154;SDS011;25875;48.202;16.334;2023-03-14T14:34:40;3.08;;;1.90;;
40154;SDS011;25875;48.202;16.334;2023-03-14T14:37:17;4.00;;;2.10;;
40154;SDS011;25875;48.202;16.334;2023-03-14T14:39:45;3.05;;;1.65;;
40154;SDS011;25875;48.202;16.334;2023-03-14T14:42:13;2.75;;;1.80;;
40154;SDS011;25875;48.202;16.334;2023-03-14T14:44:43;6.00;;;2.17;;
40154;SDS011;25875;48.202;16.334;2023-03-14T14:47:12;3.13;;;1.70;;
40154;SDS011;25875;48.202;16.334;2023-03-14T14:49:40;3.45;;;1.60;;
40154;SDS011;25875;48.202;16.334;2023-03-14T14:52:09;3.53;;;2.25;;
40154;SDS011;25875;48.202;16.334;2023-03-14T14:54:42;3.60;;;2.15;;